Time;durP1;ratioP1;P1;durP2;ratioP2;P2;SDS_P1;SDS_P2;PMS_P1;PMS_P2;Temp;Humidity;BMP_temperature;BMP_pressure;BME280_temperature;BME280_humidity;BME280_pressure;Samples;Min_cycle;Max_cycle;Signal;HPM_P1;HPM_P2
2024/01/01 00:02:21;;;;;;;15.85;12.00;;;;;;;5.40;100.00;92891.53;5057069;28;20158;-74
2024/01/01 00:04:53;;;;;;;17.38;12.80;;;;;;;6.13;100.00;92992.41;5050537;28;20084;-75
2024/01/01 00:07:50;;;;;;;17.65;13.57;;;;;;;6.34;100.00;93023.94;5062125;28;20052;-75
2024/01/01 00:10:26;;;;;;;66.35;41.65;;;;;;;5.43;100.00;92909.00;5055347;28;20055;-75
2024/01/01 00:13:07;;;;;;;38.40;27.95;;;;;;;5.73;100.00;92958.03;5050774;28;20489;-75
2024/01/01 00:15:57;;;;;;;31.35;22.00;;;;;;;5.20;100.00;92887.88;5055506;28;20044;-74
2024/01/01 00:18:49;;;;;;;;;;;;;;;;;;;;;
2024/01/01 00:21:28;;;;;;;26.70;19.85;;;;;;;5.83;100.00;92964.56;5050625;28;20045;-75
2024/01/01 00:24:02;;;;;;;26.92;18.35;;;;;;;6.34;100.00;93074.97;5054838;28;20080;-74
2024/01/01 00:29:20;;;;;;;26.92;18.40;;;;;;;6.39;100.00;93075.97;5047983;28;20380;-74
2024/01/01 00:31:52;;;;;;;20.35;15.90;;;;;;;6.01;100.00;93013.31;5055719;28;20418;-74
2024/01/01 00:34:25;;;;;;;20.15;13.93;;;;;;;5.47;100.00;92933.16;5052730;28;20422;-75
2024/01/01 00:36:58;;;;;;;23.10;15.65;;;;;;;6.03;100.00;93002.16;5053259;28;20052;-75
2024/01/01 00:39:44;;;;;;;76.75;46.05;;;;;;;6.08;100.00;93003.19;5054286;28;20426;-74
2024/01/01 00:42:19;;;;;;;56.80;37.65;;;;;;;6.28;100.00;93044.13;5052372;28;20044;-74
2024/01/01 00:45:03;;;;;;;46.60;30.42;;;;;;;6.48;100.00;93084.25;5055698;28;20053;-75
2024/01/01 00:47:37;;;;;;;45.90;30.13;;;;;;;5.67;100.00;92963.88;5057983;28;20056;-74
2024/01/01 00:50:07;;;;;;;45.38;29.77;;;;;;;5.53;100.00;92926.50;5056545;28;20076;-75
2024/01/01 00:52:37;;;;;;;29.85;20.73;;;;;;;5.86;100.00;92987.13;5062649;28;20047;-74
2024/01/01 00:55:26;;;;;;;25.58;18.67;;;;;;;6.46;100.00;93058.16;5055323;28;20048;-75
2024/01/01 00:58:06;;;;;;;22.15;16.05;;;;;;;5.50;100.00;92914.94;5049670;28;20053;-74
2024/01/01 01:00:35;;;;;;;24.65;17.70;;;;;;;5.57;100.00;92913.25;5052850;28;20061;-74
2024/01/01 01:03:04;;;;;;;72.45;36.17;;;;;;;5.71;100.00;92931.94;5053199;28;20041;-74
2024/01/01 01:05:33;;;;;;;58.58;31.88;;;;;;;6.49;100.00;93059.53;5060079;28;20048;-75
2024/01/01 01:08:00;;;;;;;54.42;31.38;;;;;;;5.57;100.00;92903.03;5056507;28;20132;-75
2024/01/01 01:10:39;;;;;;;24.50;16.73;;;;;;;6.63;100.00;93055.28;5055882;28;20047;-75
2024/01/01 01:13:12;;;;;;;57.05;30.63;;;;;;;5.69;100.00;92916.03;5054251;28;20122;-74
2024/01/01 01:15:43;;;;;;;36.40;22.35;;;;;;;6.48;100.00;93019.69;5054778;28;20125;-75
2024/01/01 01:18:14;;;;;;;46.03;27.02;;;;;;;5.98;100.00;92961.91;5054809;28;20045;-75
2024/01/01 01:20:48;;;;;;;112.53;54.42;;;;;;;6.54;100.00;93040.13;5055255;28;20056;-75
2024/01/01 01:23:15;;;;;;;62.67;32.80;;;;;;;6.74;100.00;93047.09;5052948;28;20051;-74
2024/01/01 01:25:47;;;;;;;40.88;24.92;;;;;;;6.12;100.00;92940.63;5058146;28;20099;-74
2024/01/01 01:28:22;;;;;;;30.50;20.80;;;;;;;6.50;100.00;92995.56;5050503;28;20052;-74
2024/01/01 01:30:49;;;;;;;26.35;18.45;;;;;;;5.99;100.00;92918.38;5053961;28;20044;-74
2024/01/01 01:33:31;;;;;;;75.22;36.50;;;;;;;5.72;100.00;92879.19;5057654;28;20051;-74
2024/01/01 01:36:04;;;;;;;53.05;33.13;;;;;;;6.19;100.00;92937.31;5051997;28;20055;-74
2024/01/01 01:38:47;;;;;;;52.20;31.88;;;;;;;6.64;100.00;92995.59;5054609;28;20612;-75
2024/01/01 01:41:34;;;;;;;41.95;27.95;;;;;;;5.82;100.00;92900.03;5052473;28;20044;-75
2024/01/01 01:44:11;;;;;;;28.60;21.13;;;;;;;6.19;100.00;92981.47;5052518;28;20067;-76
2024/01/01 01:46:45;;;;;;;38.47;24.10;;;;;;;6.54;100.00;93014.59;5054389;28;20059;-75
2024/01/01 01:49:27;;;;;;;30.90;21.73;;;;;;;5.42;100.00;92877.66;5050717;28;20090;-75
2024/01/01 01:52:26;;;;;;;33.63;23.73;;;;;;;5.47;100.00;92872.78;5052102;28;20084;-75
2024/01/01 01:55:08;;;;;;;33.83;23.08;;;;;;;6.28;100.00;92998.19;5056382;28;20130;-75
2024/01/01 01:57:47;;;;;;;33.17;24.45;;;;;;;5.57;100.00;92887.75;5051842;28;20048;-75
2024/01/01 02:00:17;;;;;;;56.38;33.92;;;;;;;6.58;100.00;93034.66;5054758;28;20048;-75
2024/01/01 02:02:57;;;;;;;55.60;34.72;;;;;;;6.30;100.00;92994.66;5056837;28;20044;-75
2024/01/01 02:05:31;;;;;;;42.03;27.77;;;;;;;6.35;100.00;93000.00;5052825;28;20406;-75
2024/01/01 02:08:06;;;;;;;37.47;24.98;;;;;;;6.55;100.00;93021.31;5060449;28;20133;-75
2024/01/01 02:10:47;;;;;;;36.35;26.60;;;;;;;6.26;100.00;92978.97;5053443;28;20053;-75
2024/01/01 02:13:40;;;;;;;44.80;31.52;;;;;;;5.99;100.00;92951.53;5053208;28;20049;-75
2024/01/01 02:16:13;;;;;;;39.08;27.83;;;;;;;6.70;100.00;93045.13;5048175;28;20098;-75
2024/01/01 02:18:43;;;;;;;37.85;26.27;;;;;;;5.97;100.00;92934.84;5058951;28;20053;-75
2024/01/01 02:21:17;;;;;;;29.27;19.60;;;;;;;6.25;100.00;92988.38;5050069;28;20056;-75
2024/01/01 02:23:48;;;;;;;31.20;21.45;;;;;;;6.22;100.00;92983.66;5054908;28;20045;-74
2024/01/01 02:26:22;;;;;;;29.15;20.88;;;;;;;5.60;100.00;92892.47;5056957;28;20045;-75
2024/01/01 02:28:49;;;;;;;24.60;19.75;;;;;;;6.46;100.00;93022.44;5055461;28;20059;-74
2024/01/01 02:31:20;;;;;;;25.30;18.77;;;;;;;6.64;100.00;93044.91;5054911;28;20056;-74
2024/01/01 02:34:02;;;;;;;22.02;17.58;;;;;;;5.70;100.00;92891.34;5053764;28;20073;-74
2024/01/01 02:36:30;;;;;;;20.90;16.00;;;;;;;6.73;100.00;93037.88;5052987;28;20045;-74
2024/01/01 02:39:06;;;;;;;20.55;14.93;;;;;;;6.42;100.00;92993.16;5054737;28;20159;-74
2024/01/01 02:41:40;;;;;;;16.90;12.98;;;;;;;5.72;100.00;92889.41;5051916;28;20057;-74
2024/01/01 02:44:12;;;;;;;19.20;13.57;;;;;;;6.65;100.00;93022.69;5054625;28;20411;-74
2024/01/01 02:46:40;;;;;;;17.90;13.30;;;;;;;6.68;100.00;93020.56;5052923;28;20056;-74
2024/01/01 02:49:24;;;;;;;15.57;13.13;;;;;;;5.80;100.00;92875.72;5053959;28;20103;-74
2024/01/01 02:51:53;;;;;;;15.98;12.82;;;;;;;6.45;100.00;92974.94;5058955;28;20045;-74
2024/01/01 02:54:28;;;;;;;16.05;13.15;;;;;;;6.48;100.00;92989.06;5057734;28;20452;-74
2024/01/01 02:57:07;;;;;;;15.77;11.93;;;;;;;6.60;100.00;92991.84;5049075;28;20051;-74
2024/01/01 02:59:34;;;;;;;17.88;12.40;;;;;;;6.76;100.00;93014.50;5050214;28;20136;-74
2024/01/01 03:02:11;;;;;;;18.27;12.43;;;;;;;5.82;100.00;92869.47;5051253;28;20105;-74
2024/01/01 03:04:41;;;;;;;16.52;13.18;;;;;;;6.03;100.00;92895.06;5050840;28;20045;-75
2024/01/01 03:07:18;;;;;;;17.35;11.77;;;;;;;5.97;100.00;92894.81;5052807;28;20067;-75
2024/01/01 03:09:52;;;;;;;14.50;10.95;;;;;;;6.90;100.00;93024.78;5057883;28;20052;-74
2024/01/01 03:12:33;;;;;;;14.10;12.15;;;;;;;5.70;100.00;92846.25;5058708;28;20429;-74
2024/01/01 03:15:16;;;;;;;16.70;13.38;;;;;;;6.48;100.00;92954.13;5055619;28;20117;-74
2024/01/01 03:17:57;;;;;;;17.52;12.13;;;;;;;5.80;100.00;92856.13;5055753;28;20056;-74
2024/01/01 03:20:37;;;;;;;16.23;12.20;;;;;;;6.64;100.00;92993.06;5056323;28;20056;-74
2024/01/01 03:23:31;;;;;;;14.45;11.43;;;;;;;5.86;100.00;92872.41;5050565;28;20060;-74
2024/01/01 03:26:12;;;;;;;16.58;11.98;;;;;;;6.49;100.00;92968.44;5052617;28;20052;-74
2024/01/01 03:28:53;;;;;;;18.23;12.80;;;;;;;5.57;100.00;92826.59;5052578;28;20049;-74
2024/01/01 03:31:23;;;;;;;15.85;12.23;;;;;;;6.17;100.00;92906.13;5056792;28;20135;-74
2024/01/01 03:34:02;;;;;;;16.35;12.25;;;;;;;5.61;100.00;92830.34;5048657;28;20049;-74
2024/01/01 03:36:40;;;;;;;14.73;11.65;;;;;;;6.73;100.00;92986.81;5051346;28;20056;-74
2024/01/01 03:39:07;;;;;;;16.88;13.05;;;;;;;5.93;100.00;92872.44;5056034;28;20045;-74
2024/01/01 03:41:39;;;;;;;14.77;12.10;;;;;;;6.38;100.00;92931.53;5049403;28;21073;-75
2024/01/01 03:46:59;;;;;;;17.13;12.70;;;;;;;5.63;100.00;92804.66;5051038;28;20418;-75
2024/01/01 03:49:28;;;;;;;15.52;11.48;;;;;;;5.59;100.00;92811.91;5050157;28;20136;-75
2024/01/01 03:52:02;;;;;;;15.50;11.63;;;;;;;6.63;100.00;92951.41;5056952;28;20516;-76
2024/01/01 03:54:51;;;;;;;14.75;11.50;;;;;;;6.10;100.00;92853.31;5048409;28;20076;-74
2024/01/01 03:57:34;;;;;;;17.27;12.13;;;;;;;5.98;100.00;92842.06;5048203;28;20165;-76
2024/01/01 04:03:08;;;;;;;16.02;11.82;;;;;;;6.35;100.00;92888.53;5009435;28;20197;-76
2024/01/01 04:05:49;;;;;;;14.95;12.63;;;;;;;5.80;100.00;92829.84;5011782;28;20792;-75
2024/01/01 04:08:21;;;;;;;16.95;13.00;;;;;;;6.27;100.00;92886.16;5011509;28;20510;-75
2024/01/01 04:11:13;;;;;;;15.82;12.82;;;;;;;6.64;100.00;92930.06;5013625;28;20104;-75
2024/01/01 04:13:57;;;;;;;19.05;13.55;;;;;;;5.96;100.00;92824.41;5010643;28;20045;-74
2024/01/01 04:16:34;;;;;;;19.42;13.73;;;;;;;5.75;100.00;92787.84;5014024;28;20078;-74
2024/01/01 04:19:01;;;;;;;17.20;12.35;;;;;;;5.91;100.00;92803.81;5013728;28;20806;-74
2024/01/01 04:21:34;;;;;;;16.90;13.02;;;;;;;6.38;100.00;92870.28;5012596;28;20496;-75
2024/01/01 04:24:04;;;;;;;15.02;11.90;;;;;;;6.51;100.00;92884.06;5009520;28;20054;-74
2024/01/01 04:26:45;;;;;;;18.17;13.77;;;;;;;7.05;100.00;92959.00;5015651;28;20057;-75
2024/01/01 04:29:30;;;;;;;20.20;14.50;;;;;;;6.23;100.00;92823.75;5011839;28;20056;-75
2024/01/01 04:32:17;;;;;;;19.33;12.13;;;;;;;6.76;100.00;92914.94;5010233;28;20883;-75
2024/01/01 04:34:46;;;;;;;18.25;13.93;;;;;;;6.68;100.00;92890.38;5011537;28;20298;-75
2024/01/01 04:37:19;;;;;;;103.47;57.78;;;;;;;6.67;100.00;92893.91;5009023;28;20411;-74
2024/01/01 04:39:53;;;;;;;45.72;28.42;;;;;;;6.43;100.00;92849.28;5009363;28;20411;-74
2024/01/01 04:42:20;;;;;;;21.52;16.60;;;;;;;6.59;100.00;92863.47;5016458;28;20768;-75
2024/01/01 04:44:49;;;;;;;21.48;17.05;;;;;;;6.53;100.00;92889.78;5011337;28;20065;-75
2024/01/01 04:47:22;;;;;;;21.48;18.00;;;;;;;6.82;100.00;92944.03;5010899;28;20103;-75
2024/01/01 04:50:00;;;;;;;21.30;16.65;;;;;;;6.45;100.00;92885.63;5016465;28;20056;-75
2024/01/01 04:52:47;;;;;;;18.50;14.73;;;;;;;7.12;100.00;92961.56;5013399;28;20133;-75
2024/01/01 04:58:15;;;;;;;22.80;16.70;;;;;;;6.07;100.00;92858.78;5030489;28;20502;-75
2024/01/01 05:03:57;;;;;;;21.35;16.42;;;;;;;6.35;100.00;92961.72;5049285;28;20199;-74
2024/01/01 05:06:33;;;;;;;22.88;16.52;;;;;;;5.50;100.00;92814.81;5054059;28;20103;-74
2024/01/01 05:09:16;;;;;;;26.42;20.48;;;;;;;6.20;100.00;92962.63;5052203;28;20057;-75
2024/01/01 05:12:09;;;;;;;28.05;19.98;;;;;;;5.22;100.00;92827.38;5051624;28;20060;-75
2024/01/01 05:14:43;;;;;;;27.30;20.42;;;;;;;4.50;100.00;92791.78;5048336;28;20521;-75
2024/01/01 05:17:28;;;;;;;34.72;23.05;;;;;;;4.96;100.00;92817.81;5056917;28;20164;-75
2024/01/01 05:19:58;;;;;;;35.08;20.38;;;;;;;5.78;100.00;92931.97;5049132;28;20068;-75
2024/01/01 05:22:42;;;;;;;42.53;26.15;;;;;;;5.45;100.00;92862.00;5047814;28;20136;-75
2024/01/01 05:25:24;;;;;;;35.22;23.73;;;;;;;5.78;100.00;92916.69;5050542;28;20504;-76
2024/01/01 05:28:11;;;;;;;53.55;30.25;;;;;;;6.18;100.00;92974.78;5062484;28;20045;-76
2024/01/01 05:31:00;;;;;;;;;;;;;;;;;;;;;
2024/01/01 05:34:00;;;;;;;30.33;22.35;;;;;;;5.18;100.00;92805.00;5053898;28;20090;-76
2024/01/01 05:36:37;;;;;;;22.17;15.82;;;;;;;5.42;100.00;92819.06;5051889;28;20171;-75
2024/01/01 05:39:07;;;;;;;21.15;17.05;;;;;;;6.29;100.00;92963.25;5059093;28;20044;-75
2024/01/01 05:41:36;;;;;;;32.40;24.58;;;;;;;5.46;100.00;92847.50;5058755;28;20047;-75
2024/01/01 05:46:55;;;;;;;37.58;26.58;;;;;;;5.56;100.00;92905.78;5047919;28;20562;-75
2024/01/01 05:49:26;;;;;;;33.75;26.50;;;;;;;4.82;100.00;92812.59;5054725;28;20098;-74
2024/01/01 05:51:53;;;;;;;36.05;27.90;;;;;;;5.36;100.00;92967.53;5050281;28;20509;-74
2024/01/01 05:54:25;;;;;;;39.50;30.80;;;;;;;5.12;100.00;92969.50;5057139;28;20037;-74
2024/01/01 05:57:02;;;;;;;41.38;30.55;;;;;;;4.76;100.00;92955.81;5059956;28;20060;-74
2024/01/01 05:59:39;;;;;;;36.88;26.70;;;;;;;4.19;100.00;92853.88;5052904;28;20084;-74
2024/01/01 06:02:15;;;;;;;34.13;25.15;;;;;;;4.21;100.00;92863.88;5054605;28;20430;-74
2024/01/01 06:04:56;;;;;;;42.38;31.40;;;;;;;3.47;100.00;92765.50;5054881;28;20080;-74
2024/01/01 06:07:28;;;;;;;40.75;29.02;;;;;;;4.76;100.00;92955.81;5054333;28;20059;-74
2024/01/01 06:10:14;;;;;;;40.97;28.98;;;;;;;4.05;100.00;92819.13;5058597;28;20055;-75
2024/01/01 06:12:49;;;;;;;31.58;24.63;;;;;;;4.71;100.00;92909.00;5050462;28;20049;-75
2024/01/01 06:15:22;;;;;;;23.88;18.20;;;;;;;4.21;100.00;92807.97;5053674;28;20053;-76
2024/01/01 06:17:52;;;;;;;24.25;17.88;;;;;;;5.30;100.00;92948.69;5054697;28;20052;-75
2024/01/01 06:20:30;;;;;;;22.85;15.95;;;;;;;4.39;100.00;92799.88;5055360;28;20044;-76
2024/01/01 06:26:03;;;;;;;20.27;16.05;;;;;;;5.61;100.00;92937.34;5043763;28;20080;-75
2024/01/01 06:28:46;;;;;;;23.63;16.75;;;;;;;4.80;100.00;92796.72;5052824;28;20399;-74
2024/01/01 06:31:20;;;;;;;20.70;15.15;;;;;;;4.79;100.00;92792.63;5051354;28;20052;-75
2024/01/01 06:34:02;;;;;;;;;;;;;;;;;;;;;
2024/01/01 06:36:42;;;;;;;16.48;12.95;;;;;;;4.90;100.00;92770.97;5052447;28;20506;-75
2024/01/01 06:39:28;;;;;;;17.98;13.15;;;;;;;6.00;100.00;92919.94;5050629;28;20057;-75
2024/01/01 06:42:08;;;;;;;23.90;16.27;;;;;;;5.93;100.00;92885.19;5053385;28;20041;-74
2024/01/01 06:44:54;;;;;;;16.42;13.05;;;;;;;5.66;100.00;92839.97;5049698;28;20606;-74
2024/01/01 06:47:38;;;;;;;22.33;13.68;;;;;;;6.43;100.00;92930.16;5057398;28;20056;-75
2024/01/01 06:50:17;;;;;;;17.02;13.13;;;;;;;6.58;100.00;92924.91;5055269;28;20143;-74
2024/01/01 06:52:52;;;;;;;16.00;11.85;;;;;;;5.71;100.00;92786.69;5056580;28;20087;-75
2024/01/01 06:55:36;;;;;;;17.92;13.77;;;;;;;5.72;100.00;92769.63;5051046;28;20044;-74
2024/01/01 06:58:16;;;;;;;20.80;13.85;;;;;;;6.00;100.00;92784.03;5056591;28;20490;-75
2024/01/01 07:00:59;;;;;;;23.85;15.20;;;;;;;7.02;100.00;92928.75;5052045;28;20045;-75
2024/01/01 07:03:32;;;;;;;23.17;15.70;;;;;;;7.20;100.00;92924.84;5058609;28;20086;-74
2024/01/01 07:06:12;;;;;;;19.77;14.85;;;;;;;6.85;100.00;92872.16;5051866;28;20410;-74
2024/01/01 07:08:44;;;;;;;23.13;14.63;;;;;;;6.52;100.00;92796.31;5053037;28;21760;-74
2024/01/01 07:11:23;;;;;;;19.08;13.35;;;;;;;7.14;100.00;92877.88;5058110;28;20053;-76
2024/01/01 07:13:50;;;;;;;17.20;13.05;;;;;;;7.37;100.00;92884.38;5052491;28;20390;-76
2024/01/01 07:16:27;;;;;;;19.50;13.90;;;;;;;6.65;100.00;92764.91;5059319;28;20048;-75
2024/01/01 07:19:19;;;;;;;16.25;11.65;;;;;;;7.09;100.00;92821.50;5051936;28;20063;-75
2024/01/01 07:22:04;;;;;;;13.38;11.20;;;;;;;7.00;100.00;92789.47;5050875;28;20413;-74
2024/01/01 07:24:47;;;;;;;15.95;11.68;;;;;;;7.94;100.00;92911.22;5047953;28;20399;-75
2024/01/01 07:27:25;;;;;;;13.57;10.93;;;;;;;7.93;100.00;92889.97;5049518;28;20437;-76
2024/01/01 07:32:59;;;;;;;14.60;11.13;;;;;;;7.56;100.00;92797.63;5044167;28;20067;-76
2024/01/01 07:35:30;;;;;;;13.82;9.63;;;;;;;7.88;100.00;92857.31;5051594;28;20043;-74
2024/01/01 07:38:00;;;;;;;12.60;9.30;;;;;;;8.34;100.00;92913.63;5055672;28;20160;-74
2024/01/01 07:40:29;;;;;;;11.93;8.63;;;;;;;8.53;100.00;92911.25;5050170;28;20582;-74
2024/01/01 07:43:02;;;;;;;15.07;9.52;;;;;;;8.31;100.00;92860.31;5048940;28;20049;-75
2024/01/01 07:45:41;;;;;;;12.90;9.35;;;;;;;7.86;100.00;92804.78;5052570;28;20525;-75
2024/01/01 07:48:14;;;;;;;12.90;9.55;;;;;;;8.89;100.00;92948.28;5054907;28;20129;-76
2024/01/01 07:50:57;;;;;;;14.55;9.18;;;;;;;7.86;100.00;92792.81;5056077;28;20065;-76
2024/01/01 07:53:39;;;;;;;14.93;10.35;;;;;;;8.22;100.00;92843.63;5058533;28;20049;-75
2024/01/01 07:56:37;;;;;;;12.93;10.05;;;;;;;8.42;100.00;92858.88;5048379;28;20044;-75
2024/01/01 07:59:14;;;;;;;13.55;9.75;;;;;;;7.93;100.00;92797.09;5058275;28;20052;-75
2024/01/01 08:04:42;;;;;;;15.85;11.40;;;;;;;9.15;100.00;92948.34;5047616;28;20048;-75
2024/01/01 08:07:19;;;;;;;17.52;13.20;;;;;;;8.21;100.00;92811.34;5052405;28;20533;-75
2024/01/01 08:12:42;;;;;;;31.60;19.25;;;;;;;8.65;100.00;92876.31;5058243;28;20056;-75
2024/01/01 08:15:13;;;;;;;30.38;18.45;;;;;;;8.55;100.00;92853.72;5055593;28;20044;-75
2024/01/01 08:17:50;;;;;;;19.13;12.13;;;;;;;8.23;100.00;92796.56;5048102;28;20063;-75
2024/01/01 08:20:29;;;;;;;17.67;11.60;;;;;;;8.91;100.00;92899.41;5051783;28;20059;-75
2024/01/01 08:23:03;;;;;;;16.40;12.35;;;;;;;9.18;100.00;92945.38;5050683;28;20041;-75
2024/01/01 08:25:44;;;;;;;36.83;21.58;;;;;;;9.25;100.00;92953.03;5055869;28;20056;-74
2024/01/01 08:28:33;;;;;;;23.23;12.90;;;;;;;8.32;100.00;92826.06;5057884;28;20055;-74
2024/01/01 08:34:09;;;;;;;13.52;9.85;;;;;;;8.85;100.00;92897.69;5052370;28;20053;-76
2024/01/01 08:36:43;;;;;;;12.63;8.98;;;;;;;9.38;100.00;92963.19;5049559;28;20064;-75
2024/01/01 08:39:28;;;;;;;12.15;9.23;;;;;;;8.52;100.00;92831.09;5048740;28;20079;-75
2024/01/01 08:42:09;;;;;;;13.07;9.48;;;;;;;9.27;100.00;92933.88;5050272;28;20049;-75
2024/01/01 08:45:24;;;;;;;15.13;10.60;;;;;;;8.36;100.00;92809.31;5055003;28;20529;-75
2024/01/01 08:48:04;;;;;;;19.33;11.70;;;;;;;9.21;100.00;92927.00;5021200;28;20644;-75
2024/01/01 08:50:31;;;;;;;39.72;19.45;;;;;;;8.78;100.00;92859.28;5051826;28;20098;-74
2024/01/01 08:53:10;;;;;;;26.73;14.15;;;;;;;8.60;100.00;92832.63;5061760;28;20086;-74
2024/01/01 08:55:42;;;;;;;108.10;40.13;;;;;;;9.33;100.00;92948.44;5047524;28;20065;-74
2024/01/01 08:58:19;;;;;;;163.52;53.97;;;;;;;8.35;100.00;92799.28;5049093;28;20049;-74
2024/01/01 09:01:00;;;;;;;78.97;31.05;;;;;;;8.38;100.00;92791.19;5060246;28;20140;-74
2024/01/01 09:03:39;;;;;;;39.78;20.48;;;;;;;8.67;100.00;92830.03;5051053;28;20906;-75
2024/01/01 09:06:35;;;;;;;24.17;14.68;;;;;;;8.49;100.00;92790.53;5050583;28;20064;-75
2024/01/01 09:11:59;;;;;;;11.40;8.55;;;;;;;9.39;100.00;92889.63;5057461;28;20424;-75
2024/01/01 09:14:34;;;;;;;13.23;10.68;;;;;;;8.80;100.00;92799.19;5050884;28;20056;-74
2024/01/01 09:17:10;;;;;;;10.73;7.83;;;;;;;9.25;99.17;92837.69;5052009;28;20498;-75
2024/01/01 09:19:56;;;;;;;;;;;;;;;9.85;98.03;92934.59;5053000;28;20329;-75
2024/01/01 09:22:25;;;;;;;14.02;11.20;;;;;;;8.79;98.49;92769.47;5055685;28;19920;-75
2024/01/01 09:27:52;;;;;;;11.05;7.97;;;;;;;8.85;97.89;92767.84;5049480;28;20057;-75
2024/01/01 09:30:21;;;;;;;13.90;8.75;;;;;;;9.75;98.81;92877.84;5049268;28;20060;-75
2024/01/01 09:32:52;;;;;;;12.55;7.82;;;;;;;8.91;98.14;92749.09;5054477;28;20430;-74
2024/01/01 09:35:23;;;;;;;10.55;8.15;;;;;;;9.76;97.77;92866.59;5061090;28;20714;-74
2024/01/01 09:37:55;;;;;;;9.75;7.50;;;;;;;9.00;98.43;92776.97;5054380;28;20133;-74
2024/01/01 09:40:27;;;;;;;12.90;8.20;;;;;;;9.12;97.80;92805.28;5060912;28;20044;-74
2024/01/01 09:43:18;;;;;;;13.43;8.07;;;;;;;9.67;98.69;92881.47;5052088;28;20037;-75
2024/01/01 09:45:50;;;;;;;11.55;8.38;;;;;;;8.94;97.87;92763.25;5050903;28;20072;-75
2024/01/01 09:48:28;;;;;;;9.82;7.47;;;;;;;9.88;96.61;92911.09;5051169;28;20048;-75
2024/01/01 09:51:03;;;;;;;12.55;9.23;;;;;;;9.36;96.34;92816.50;5056637;28;20131;-75
2024/01/01 09:53:37;;;;;;;14.60;8.73;;;;;;;9.55;95.74;92825.00;5065194;28;20048;-75
2024/01/01 09:56:16;;;;;;;10.82;7.70;;;;;;;10.08;95.00;92904.97;5051537;28;20103;-75
2024/01/01 09:58:58;;;;;;;11.82;8.20;;;;;;;9.29;95.46;92792.69;5050294;28;20107;-75
2024/01/01 10:01:33;;;;;;;11.05;7.72;;;;;;;9.24;94.97;92783.06;5051395;28;20144;-75
2024/01/01 10:04:13;;;;;;;13.15;8.02;;;;;;;9.67;94.71;92811.47;5054925;28;20156;-75
2024/01/01 10:06:43;;;;;;;10.73;6.95;;;;;;;10.24;93.85;92874.59;5049144;28;20114;-75
2024/01/01 10:09:14;;;;;;;8.68;6.18;;;;;;;9.44;92.60;92723.16;5050587;28;20045;-75
2024/01/01 10:11:44;;;;;;;12.43;6.82;;;;;;;9.49;92.46;92713.00;5049459;28;20049;-75
2024/01/01 10:14:16;;;;;;;12.05;7.55;;;;;;;9.80;91.98;92721.53;5051979;28;20053;-75
2024/01/01 10:16:52;;;;;;;10.32;6.40;;;;;;;10.97;91.55;92882.34;5051961;28;20044;-75
2024/01/01 10:19:25;;;;;;;15.57;8.43;;;;;;;10.20;90.44;92760.50;5053291;28;20048;-75
2024/01/01 10:21:56;;;;;;;22.92;12.68;;;;;;;10.82;89.99;92852.72;5054931;28;20407;-75
2024/01/01 10:24:33;;;;;;;27.38;14.68;;;;;;;11.04;90.28;92866.84;5051270;28;20413;-76
2024/01/01 10:27:03;;;;;;;9.13;6.75;;;;;;;11.18;89.06;92870.81;5052480;28;20129;-76
2024/01/01 10:29:42;;;;;;;18.13;10.75;;;;;;;10.28;89.42;92744.81;5052901;28;20048;-75
2024/01/01 10:32:12;;;;;;;27.45;13.35;;;;;;;11.00;88.82;92838.25;5051629;28;20060;-75
2024/01/01 10:34:48;;;;;;;11.55;8.15;;;;;;;10.58;88.31;92785.09;5053033;28;20084;-75
2024/01/01 10:37:25;;;;;;;;;;;;;;;11.34;88.37;92866.78;5059599;28;20044;-75
2024/01/01 10:43:07;;;;;;;12.35;7.05;;;;;;;11.25;87.89;92864.78;5055476;28;20045;-75
2024/01/01 10:45:35;;;;;;;13.02;7.53;;;;;;;10.32;87.11;92727.19;5057990;28;20521;-75
2024/01/01 10:48:20;;;;;;;16.75;10.35;;;;;;;10.59;87.55;92739.66;5055416;28;20075;-75
2024/01/01 10:51:12;;;;;;;19.48;10.98;;;;;;;10.71;87.32;92731.97;5051937;28;20056;-75
2024/01/01 10:54:02;;;;;;;10.90;6.30;;;;;;;11.07;85.44;92790.06;5049467;28;20080;-75
2024/01/01 10:56:41;;;;;;;15.32;7.90;;;;;;;11.00;86.25;92779.13;5048129;28;20095;-75
2024/01/01 10:59:21;;;;;;;11.00;7.68;;;;;;;11.39;86.64;92847.34;5051947;28;20044;-75
2024/01/01 11:01:50;;;;;;;32.65;15.60;;;;;;;11.05;85.52;92781.03;5049834;28;20057;-75
2024/01/01 11:04:20;;;;;;;25.23;13.40;;;;;;;11.69;84.99;92859.28;5051591;28;20055;-74
2024/01/01 11:06:48;;;;;;;17.30;9.88;;;;;;;11.13;85.14;92770.44;5053985;28;20053;-75
2024/01/01 11:09:39;;;;;;;17.95;10.68;;;;;;;11.28;84.64;92764.81;5052590;28;21226;-75
2024/01/01 11:12:08;;;;;;;18.75;10.05;;;;;;;11.77;83.82;92856.38;5036206;28;20048;-75
2024/01/01 11:14:48;;;;;;;11.88;7.90;;;;;;;11.02;84.05;92740.38;5049841;28;20936;-75
2024/01/01 11:17:28;;;;;;;52.33;32.83;;;;;;;11.79;83.64;92851.78;5050075;28;20099;-75
2024/01/01 11:20:06;;;;;;;27.02;13.82;;;;;;;11.79;83.49;92844.06;5050390;28;20055;-75
2024/01/01 11:22:35;;;;;;;29.38;13.23;;;;;;;11.48;82.73;92787.63;5051648;28;20147;-75
2024/01/01 11:25:09;;;;;;;15.68;8.10;;;;;;;10.95;82.33;92704.50;5052271;28;20052;-75
2024/01/01 11:27:54;;;;;;;24.73;11.38;;;;;;;11.52;83.54;92790.53;5050061;28;20056;-75
2024/01/01 11:30:24;;;;;;;;;;;;;;;11.81;83.53;92834.31;5053092;28;20528;-75
2024/01/01 11:33:05;;;;;;;27.83;14.25;;;;;;;11.44;82.93;92760.00;5059217;28;20191;-75
2024/01/01 11:35:49;;;;;;;12.80;7.35;;;;;;;11.63;83.76;92765.81;5052181;28;20529;-75
2024/01/01 11:38:26;;;;;;;7.82;5.55;;;;;;;11.28;82.76;92705.69;5047449;28;20063;-75
2024/01/01 11:41:02;;;;;;;11.38;6.82;;;;;;;11.97;82.27;92826.91;5050513;28;20044;-75
2024/01/01 11:43:34;;;;;;;10.75;7.05;;;;;;;11.12;82.14;92688.38;5051241;28;20139;-75
2024/01/01 11:46:11;;;;;;;12.52;7.20;;;;;;;11.56;82.21;92747.91;5050155;28;20509;-75
2024/01/01 11:48:45;;;;;;;10.27;6.97;;;;;;;11.72;81.91;92759.28;5055484;28;20055;-75
2024/01/01 11:51:23;;;;;;;34.60;19.23;;;;;;;11.45;82.14;92718.66;5051309;28;20040;-75
2024/01/01 11:54:25;;;;;;;15.00;9.30;;;;;;;11.24;81.68;92681.44;5051251;28;20514;-75
2024/01/01 11:56:57;;;;;;;12.27;8.68;;;;;;;11.15;80.75;92675.09;5048247;28;20118;-75
2024/01/01 11:59:28;;;;;;;12.15;7.75;;;;;;;11.93;81.09;92779.50;5050043;28;20459;-75
2024/01/01 12:02:01;;;;;;;7.90;5.45;;;;;;;12.15;80.35;92816.50;5050728;28;20406;-75
2024/01/01 12:04:46;;;;;;;11.55;7.68;;;;;;;12.08;80.66;92786.75;5050554;28;20287;-75
2024/01/01 12:07:34;;;;;;;18.33;11.35;;;;;;;11.92;80.23;92722.09;5056491;28;20040;-75
2024/01/01 12:10:07;;;;;;;51.05;28.75;;;;;;;11.62;79.89;92658.78;5055741;28;20053;-75
2024/01/01 12:12:39;;;;;;;11.10;7.72;;;;;;;11.95;79.64;92695.88;5050703;28;20491;-75
2024/01/01 12:15:24;;;;;;;17.25;10.70;;;;;;;12.12;79.58;92693.38;5050705;28;20131;-75
2024/01/01 12:17:53;;;;;;;33.92;15.93;;;;;;;11.91;78.30;92656.19;5053220;28;20486;-75
2024/01/01 12:20:39;;;;;;;18.75;11.48;;;;;;;12.35;78.59;92719.25;5052005;28;20130;-75
2024/01/01 12:23:17;;;;;;;25.67;13.35;;;;;;;12.69;77.30;92750.19;5050446;28;20053;-75
2024/01/01 12:25:49;;;;;;;29.42;14.88;;;;;;;13.14;77.97;92807.81;5055899;28;20485;-75
2024/01/01 12:28:22;;;;;;;78.15;34.15;;;;;;;12.30;77.61;92668.41;5047486;28;20490;-75
2024/01/01 12:30:55;;;;;;;17.88;8.85;;;;;;;12.91;78.05;92760.56;5048444;28;20118;-75
2024/01/01 12:33:24;;;;;;;8.98;6.00;;;;;;;12.19;77.38;92666.69;5047254;28;20048;-75
2024/01/01 12:35:57;;;;;;;34.00;17.38;;;;;;;12.80;76.15;92756.28;5054893;28;20122;-75
2024/01/01 12:38:38;;;;;;;17.42;9.45;;;;;;;12.91;76.40;92785.56;5061825;28;20060;-75
2024/01/01 12:41:05;;;;;;;17.25;9.32;;;;;;;12.10;76.58;92687.69;5055740;28;20045;-75
2024/01/01 12:43:39;;;;;;;12.85;7.75;;;;;;;11.86;76.68;92653.53;5058598;28;20503;-75
2024/01/01 12:46:10;;;;;;;8.85;5.10;;;;;;;12.51;76.93;92751.19;5054099;28;20150;-76
2024/01/01 12:48:48;;;;;;;43.20;22.05;;;;;;;12.25;77.30;92712.91;5052093;28;20048;-76
2024/01/01 12:51:21;;;;;;;15.75;8.27;;;;;;;12.88;77.41;92794.56;5053384;28;20048;-76